SBCT/CWB METAR and TAF weather

Enter ICAO airport designator
Station Type Date Time Source
SBCT METAR 2019/02/23 00:00 UTC NOAA

SBCT 230000Z 06002KT 9999 FEW008 SCT017 22/20 Q1019


Station Type Date Time Source
SBCT Decoded METAR 2019/02/23 00:00 UTC NOAA

Curitiba Aeroporto , Brazil (SBCT) 25-31S 049-10W 908M
Feb 22, 2019 - 07:00 PM EST / 2019.02.23 0000 UTC
Wind: from the ENE (060 degrees) at 2 MPH (2 KT):0
Visibility: greater than 7 mile(s):0
Sky conditions: partly cloudy
Temperature: 71 F (22 C)
Dew Point: 68 F (20 C)
Relative Humidity: 88%
Pressure (altimeter): 30.09 in. Hg (1019 hPa)
ob: SBCT 230000Z 06002KT 9999 FEW008 SCT017 22/20 Q1019
cycle: 0

Station Type Date Time Source
SBCT TAF 2019/02/23 00:33 UTC NOAA

TAF SBCT 222100Z 2300/2324 03004KT 9999 FEW025 TN18/2308Z TX28/2317Z
BECMG 2300/2302 BKN005 PROB40
TEMPO 2306/2310 0800 FG BKN002
BECMG 2310/2312 33006KT BKN010
BECMG 2312/2314 30010KT BKN020
BECMG 2314/2316 SCT035
RMK PDW


Example: see airport list